sensor_id;sensor_type;location;lat;lon;timestamp;P1;durP1;ratioP1;P2;durP2;ratioP2
13564;SDS011;6854;48.096;11.278;2023-04-29T08:31:58;6.97;;;3.10;;
13564;SDS011;6854;48.096;11.278;2023-04-29T08:34:24;2.90;;;2.00;;
13564;SDS011;6854;48.096;11.278;2023-04-29T08:36:50;3.37;;;2.50;;
13564;SDS011;6854;48.096;11.278;2023-04-29T08:39:16;6.13;;;2.10;;
13564;SDS011;6854;48.096;11.278;2023-04-29T08:41:42;2.80;;;1.97;;
13564;SDS011;6854;48.096;11.278;2023-04-29T08:44:13;5.30;;;2.30;;
13564;SDS011;6854;48.096;11.278;2023-04-29T08:46:41;2.93;;;2.00;;
13564;SDS011;6854;48.096;11.278;2023-04-29T08:49:07;6.70;;;2.17;;
13564;SDS011;6854;48.096;11.278;2023-04-29T08:51:34;2.70;;;2.00;;
13564;SDS011;6854;48.096;11.278;2023-04-29T08:54:00;3.83;;;2.30;;
13564;SDS011;6854;48.096;11.278;2023-04-29T08:56:26;11.90;;;4.97;;
13564;SDS011;6854;48.096;11.278;2023-04-29T08:58:52;13.83;;;6.50;;
13564;SDS011;6854;48.096;11.278;2023-04-29T09:01:20;12.00;;;4.57;;
13564;SDS011;6854;48.096;11.278;2023-04-29T09:06:26;3.97;;;3.10;;
13564;SDS011;6854;48.096;11.278;2023-04-29T09:08:52;9.00;;;5.17;;
13564;SDS011;6854;48.096;11.278;2023-04-29T09:11:18;5.20;;;3.40;;
13564;SDS011;6854;48.096;11.278;2023-04-29T09:13:45;2.90;;;2.00;;
13564;SDS011;6854;48.096;11.278;2023-04-29T09:16:11;2.50;;;1.63;;
13564;SDS011;6854;48.096;11.278;2023-04-29T09:18:40;5.70;;;1.73;;
13564;SDS011;6854;48.096;11.278;2023-04-29T09:23:45;3.40;;;1.87;;
13564;SDS011;6854;48.096;11.278;2023-04-29T09:26:12;2.80;;;1.40;;
13564;SDS011;6854;48.096;11.278;2023-04-29T09:28:38;3.90;;;1.90;;
13564;SDS011;6854;48.096;11.278;2023-04-29T09:31:05;5.33;;;1.77;;
13564;SDS011;6854;48.096;11.278;2023-04-29T09:33:48;2.43;;;1.60;;
13564;SDS011;6854;48.096;11.278;2023-04-29T09:36:15;5.10;;;2.00;;
13564;SDS011;6854;48.096;11.278;2023-04-29T09:38:59;2.10;;;1.40;;
13564;SDS011;6854;48.096;11.278;2023-04-29T09:41:25;7.20;;;1.83;;
13564;SDS011;6854;48.096;11.278;2023-04-29T09:44:04;4.50;;;1.73;;
13564;SDS011;6854;48.096;11.278;2023-04-29T09:46:31;4.27;;;2.50;;
13564;SDS011;6854;48.096;11.278;2023-04-29T09:48:57;3.70;;;1.80;;
13564;SDS011;6854;48.096;11.278;2023-04-29T09:51:23;3.33;;;1.50;;
13564;SDS011;6854;48.096;11.278;2023-04-29T09:53:49;2.20;;;1.40;;
13564;SDS011;6854;48.096;11.278;2023-04-29T09:56:15;4.43;;;1.43;;
13564;SDS011;6854;48.096;11.278;2023-04-29T09:58:41;3.50;;;1.70;;
13564;SDS011;6854;48.096;11.278;2023-04-29T10:01:07;3.87;;;1.80;;
13564;SDS011;6854;48.096;11.278;2023-04-29T10:03:34;2.43;;;1.20;;
13564;SDS011;6854;48.096;11.278;2023-04-29T10:06:02;2.40;;;1.50;;
13564;SDS011;6854;48.096;11.278;2023-04-29T10:08:28;10.93;;;1.93;;
13564;SDS011;6854;48.096;11.278;2023-04-29T10:11:03;2.77;;;1.40;;
13564;SDS011;6854;48.096;11.278;2023-04-29T10:13:30;4.00;;;1.60;;
13564;SDS011;6854;48.096;11.278;2023-04-29T10:18:34;2.93;;;1.50;;
13564;SDS011;6854;48.096;11.278;2023-04-29T10:21:05;3.73;;;1.30;;
13564;SDS011;6854;48.096;11.278;2023-04-29T10:23:34;7.27;;;2.00;;
13564;SDS011;6854;48.096;11.278;2023-04-29T10:26:02;2.90;;;1.73;;
13564;SDS011;6854;48.096;11.278;2023-04-29T10:28:31;2.47;;;1.50;;
13564;SDS011;6854;48.096;11.278;2023-04-29T10:31:01;1.70;;;1.13;;
13564;SDS011;6854;48.096;11.278;2023-04-29T10:33:29;1.80;;;1.20;;
13564;SDS011;6854;48.096;11.278;2023-04-29T10:35:57;6.03;;;2.87;;
13564;SDS011;6854;48.096;11.278;2023-04-29T10:38:29;2.80;;;1.90;;
13564;SDS011;6854;48.096;11.278;2023-04-29T10:40:55;2.90;;;2.23;;
13564;SDS011;6854;48.096;11.278;2023-04-29T10:43:23;3.77;;;2.37;;
13564;SDS011;6854;48.096;11.278;2023-04-29T10:45:49;4.57;;;3.47;;
13564;SDS011;6854;48.096;11.278;2023-04-29T10:48:15;7.23;;;2.40;;
13564;SDS011;6854;48.096;11.278;2023-04-29T10:53:11;3.20;;;1.70;;
13564;SDS011;6854;48.096;11.278;2023-04-29T10:55:41;3.50;;;2.10;;
13564;SDS011;6854;48.096;11.278;2023-04-29T11:00:52;2.97;;;1.50;;
13564;SDS011;6854;48.096;11.278;2023-04-29T11:06:08;3.03;;;1.43;;
13564;SDS011;6854;48.096;11.278;2023-04-29T11:08:38;2.60;;;1.57;;
13564;SDS011;6854;48.096;11.278;2023-04-29T11:11:04;3.10;;;1.43;;
13564;SDS011;6854;48.096;11.278;2023-04-29T11:13:32;4.90;;;2.90;;
13564;SDS011;6854;48.096;11.278;2023-04-29T11:16:08;3.60;;;1.60;;
13564;SDS011;6854;48.096;11.278;2023-04-29T11:21:20;4.00;;;1.57;;
13564;SDS011;6854;48.096;11.278;2023-04-29T11:23:46;2.30;;;1.40;;
13564;SDS011;6854;48.096;11.278;2023-04-29T11:26:18;2.20;;;1.50;;
13564;SDS011;6854;48.096;11.278;2023-04-29T11:28:44;2.30;;;1.40;;
13564;SDS011;6854;48.096;11.278;2023-04-29T11:31:10;2.00;;;1.40;;
13564;SDS011;6854;48.096;11.278;2023-04-29T11:33:36;2.30;;;1.23;;
13564;SDS011;6854;48.096;11.278;2023-04-29T11:36:02;2.53;;;1.50;;
13564;SDS011;6854;48.096;11.278;2023-04-29T11:38:28;2.43;;;1.47;;
13564;SDS011;6854;48.096;11.278;2023-04-29T11:40:55;3.67;;;1.30;;
13564;SDS011;6854;48.096;11.278;2023-04-29T11:43:21;3.97;;;1.30;;
13564;SDS011;6854;48.096;11.278;2023-04-29T11:45:48;2.43;;;1.50;;
13564;SDS011;6854;48.096;11.278;2023-04-29T11:48:19;3.33;;;1.50;;
13564;SDS011;6854;48.096;11.278;2023-04-29T11:50:48;2.67;;;1.37;;
13564;SDS011;6854;48.096;11.278;2023-04-29T11:53:15;2.93;;;1.80;;
13564;SDS011;6854;48.096;11.278;2023-04-29T11:55:41;4.30;;;1.37;;
13564;SDS011;6854;48.096;11.278;2023-04-29T11:58:07;2.70;;;1.60;;
13564;SDS011;6854;48.096;11.278;2023-04-29T12:00:33;3.63;;;1.20;;
13564;SDS011;6854;48.096;11.278;2023-04-29T12:03:20;8.17;;;1.53;;
13564;SDS011;6854;48.096;11.278;2023-04-29T12:05:47;1.77;;;1.10;;
13564;SDS011;6854;48.096;11.278;2023-04-29T12:08:18;3.10;;;1.50;;
13564;SDS011;6854;48.096;11.278;2023-04-29T12:10:45;2.00;;;1.10;;
13564;SDS011;6854;48.096;11.278;2023-04-29T12:13:11;2.20;;;1.23;;
13564;SDS011;6854;48.096;11.278;2023-04-29T12:15:47;2.00;;;1.27;;
13564;SDS011;6854;48.096;11.278;2023-04-29T12:18:14;2.53;;;1.23;;
13564;SDS011;6854;48.096;11.278;2023-04-29T12:20:41;3.40;;;1.10;;
13564;SDS011;6854;48.096;11.278;2023-04-29T12:23:10;3.00;;;1.13;;
13564;SDS011;6854;48.096;11.278;2023-04-29T12:25:38;2.90;;;1.30;;
13564;SDS011;6854;48.096;11.278;2023-04-29T12:28:16;2.10;;;1.20;;
13564;SDS011;6854;48.096;11.278;2023-04-29T12:30:43;3.53;;;1.17;;
13564;SDS011;6854;48.096;11.278;2023-04-29T12:33:09;4.97;;;1.43;;
13564;SDS011;6854;48.096;11.278;2023-04-29T12:35:38;1.97;;;1.20;;
13564;SDS011;6854;48.096;11.278;2023-04-29T12:38:04;2.00;;;1.30;;
13564;SDS011;6854;48.096;11.278;2023-04-29T12:40:30;2.07;;;1.23;;
13564;SDS011;6854;48.096;11.278;2023-04-29T12:42:58;2.23;;;1.23;;
13564;SDS011;6854;48.096;11.278;2023-04-29T12:45:31;3.60;;;1.40;;
13564;SDS011;6854;48.096;11.278;2023-04-29T12:47:58;2.53;;;1.47;;
13564;SDS011;6854;48.096;11.278;2023-04-29T12:50:28;2.00;;;1.27;;
13564;SDS011;6854;48.096;11.278;2023-04-29T12:52:55;3.20;;;1.30;;
13564;SDS011;6854;48.096;11.278;2023-04-29T12:55:21;2.90;;;1.33;;
13564;SDS011;6854;48.096;11.278;2023-04-29T12:57:47;3.40;;;1.20;;
13564;SDS011;6854;48.096;11.278;2023-04-29T13:00:15;2.30;;;1.20;;
13564;SDS011;6854;48.096;11.278;2023-04-29T13:02:42;2.30;;;1.40;;
13564;SDS011;6854;48.096;11.278;2023-04-29T13:05:08;1.83;;;1.23;;
13564;SDS011;6854;48.096;11.278;2023-04-29T13:07:36;5.93;;;1.40;;
13564;SDS011;6854;48.096;11.278;2023-04-29T13:10:02;3.03;;;1.03;;
13564;SDS011;6854;48.096;11.278;2023-04-29T13:12:30;2.67;;;1.30;;
13564;SDS011;6854;48.096;11.278;2023-04-29T13:14:56;1.80;;;0.90;;
13564;SDS011;6854;48.096;11.278;2023-04-29T13:17:22;3.00;;;1.20;;
13564;SDS011;6854;48.096;11.278;2023-04-29T13:19:58;3.00;;;1.17;;
13564;SDS011;6854;48.096;11.278;2023-04-29T13:22:30;3.50;;;1.20;;
13564;SDS011;6854;48.096;11.278;2023-04-29T13:25:36;3.20;;;1.10;;
13564;SDS011;6854;48.096;11.278;2023-04-29T13:28:10;1.77;;;1.00;;
13564;SDS011;6854;48.096;11.278;2023-04-29T13:33:52;2.40;;;1.37;;
13564;SDS011;6854;48.096;11.278;2023-04-29T13:43:04;2.13;;;1.23;;
13564;SDS011;6854;48.096;11.278;2023-04-29T13:48:52;5.07;;;1.25;;
13564;SDS011;6854;48.096;11.278;2023-04-29T13:52:02;2.15;;;1.00;;
13564;SDS011;6854;48.096;11.278;2023-04-29T13:54:38;2.00;;;1.23;;
13564;SDS011;6854;48.096;11.278;2023-04-29T14:00:11;1.87;;;1.20;;
13564;SDS011;6854;48.096;11.278;2023-04-29T14:02:39;3.37;;;1.93;;
13564;SDS011;6854;48.096;11.278;2023-04-29T14:05:08;2.83;;;1.90;;
13564;SDS011;6854;48.096;11.278;2023-04-29T14:07:34;2.30;;;1.30;;
13564;SDS011;6854;48.096;11.278;2023-04-29T14:10:00;2.30;;;1.10;;
13564;SDS011;6854;48.096;11.278;2023-04-29T14:12:34;3.15;;;1.00;;
13564;SDS011;6854;48.096;11.278;2023-04-29T14:21:49;2.25;;;1.25;;
13564;SDS011;6854;48.096;11.278;2023-04-29T14:27:30;1.88;;;1.00;;
13564;SDS011;6854;48.096;11.278;2023-04-29T14:30:15;1.80;;;1.00;;
13564;SDS011;6854;48.096;11.278;2023-04-29T14:33:02;1.60;;;0.90;;
13564;SDS011;6854;48.096;11.278;2023-04-29T14:36:15;1.70;;;1.00;;
13564;SDS011;6854;48.096;11.278;2023-04-29T14:38:51;4.00;;;1.10;;
13564;SDS011;6854;48.096;11.278;2023-04-29T14:41:41;1.77;;;1.10;;
13564;SDS011;6854;48.096;11.278;2023-04-29T14:44:52;2.20;;;1.00;;
13564;SDS011;6854;48.096;11.278;2023-04-29T14:50:22;2.05;;;1.17;;
13564;SDS011;6854;48.096;11.278;2023-04-29T14:53:15;2.00;;;1.10;;
13564;SDS011;6854;48.096;11.278;2023-04-29T15:04:55;1.75;;;1.10;;
13564;SDS011;6854;48.096;11.278;2023-04-29T15:07:24;2.45;;;1.05;;
13564;SDS011;6854;48.096;11.278;2023-04-29T15:22:25;1.90;;;1.20;;
13564;SDS011;6854;48.096;11.278;2023-04-29T16:29:46;1.77;;;1.23;;
13564;SDS011;6854;48.096;11.278;2023-04-29T16:35:18;3.37;;;1.43;;
13564;SDS011;6854;48.096;11.278;2023-04-29T16:38:18;2.67;;;1.30;;
13564;SDS011;6854;48.096;11.278;2023-04-29T16:40:44;1.40;;;1.10;;
13564;SDS011;6854;48.096;11.278;2023-04-29T16:43:12;2.03;;;1.30;;
13564;SDS011;6854;48.096;11.278;2023-04-29T16:45:39;2.57;;;1.90;;
13564;SDS011;6854;48.096;11.278;2023-04-29T16:48:08;3.17;;;1.40;;
13564;SDS011;6854;48.096;11.278;2023-04-29T16:50:34;2.60;;;1.27;;
13564;SDS011;6854;48.096;11.278;2023-04-29T16:53:07;1.90;;;1.10;;
13564;SDS011;6854;48.096;11.278;2023-04-29T16:55:58;1.60;;;1.20;;
13564;SDS011;6854;48.096;11.278;2023-04-29T16:58:24;1.50;;;1.10;;
13564;SDS011;6854;48.096;11.278;2023-04-29T17:03:54;1.93;;;1.37;;
13564;SDS011;6854;48.096;11.278;2023-04-29T17:06:23;1.50;;;1.20;;
13564;SDS011;6854;48.096;11.278;2023-04-29T17:08:51;2.30;;;1.60;;
13564;SDS011;6854;48.096;11.278;2023-04-29T17:18:07;2.50;;;2.03;;
13564;SDS011;6854;48.096;11.278;2023-04-29T17:21:18;5.37;;;2.70;;
13564;SDS011;6854;48.096;11.278;2023-04-29T17:26:46;2.63;;;2.20;;
13564;SDS011;6854;48.096;11.278;2023-04-29T17:29:35;4.00;;;2.80;;
13564;SDS011;6854;48.096;11.278;2023-04-29T17:45:11;3.60;;;2.47;;
13564;SDS011;6854;48.096;11.278;2023-04-29T17:48:03;3.33;;;2.60;;
13564;SDS011;6854;48.096;11.278;2023-04-29T18:00:39;5.27;;;3.43;;
13564;SDS011;6854;48.096;11.278;2023-04-29T18:06:43;5.83;;;4.40;;
13564;SDS011;6854;48.096;11.278;2023-04-29T18:09:49;6.90;;;4.53;;
13564;SDS011;6854;48.096;11.278;2023-04-29T18:12:25;7.20;;;4.60;;
13564;SDS011;6854;48.096;11.278;2023-04-29T18:15:38;7.23;;;5.00;;
13564;SDS011;6854;48.096;11.278;2023-04-29T18:18:36;5.03;;;4.50;;
13564;SDS011;6854;48.096;11.278;2023-04-29T18:21:29;6.70;;;5.00;;
13564;SDS011;6854;48.096;11.278;2023-04-29T18:27:00;6.63;;;5.20;;
13564;SDS011;6854;48.096;11.278;2023-04-29T18:29:28;7.80;;;4.57;;
13564;SDS011;6854;48.096;11.278;2023-04-29T18:32:29;6.07;;;4.90;;
13564;SDS011;6854;48.096;11.278;2023-04-29T18:34:55;7.30;;;4.80;;
13564;SDS011;6854;48.096;11.278;2023-04-29T18:37:22;7.00;;;4.87;;
13564;SDS011;6854;48.096;11.278;2023-04-29T18:39:48;14.53;;;5.23;;
13564;SDS011;6854;48.096;11.278;2023-04-29T18:42:18;7.20;;;5.27;;
13564;SDS011;6854;48.096;11.278;2023-04-29T18:47:56;7.40;;;5.40;;
13564;SDS011;6854;48.096;11.278;2023-04-29T18:50:23;12.80;;;6.20;;
13564;SDS011;6854;48.096;11.278;2023-04-29T18:52:49;11.30;;;6.40;;
13564;SDS011;6854;48.096;11.278;2023-04-29T18:55:15;9.50;;;5.63;;
13564;SDS011;6854;48.096;11.278;2023-04-29T18:57:41;8.43;;;5.67;;
13564;SDS011;6854;48.096;11.278;2023-04-29T19:00:08;8.20;;;5.77;;
13564;SDS011;6854;48.096;11.278;2023-04-29T19:02:35;9.03;;;5.83;;
13564;SDS011;6854;48.096;11.278;2023-04-29T19:05:02;9.50;;;5.90;;
13564;SDS011;6854;48.096;11.278;2023-04-29T19:07:33;9.97;;;5.87;;
13564;SDS011;6854;48.096;11.278;2023-04-29T19:10:00;11.10;;;6.30;;
13564;SDS011;6854;48.096;11.278;2023-04-29T19:12:28;10.73;;;5.80;;
13564;SDS011;6854;48.096;11.278;2023-04-29T19:14:54;9.10;;;6.23;;
13564;SDS011;6854;48.096;11.278;2023-04-29T19:17:20;9.10;;;6.40;;
13564;SDS011;6854;48.096;11.278;2023-04-29T19:19:49;10.57;;;5.90;;
13564;SDS011;6854;48.096;11.278;2023-04-29T19:22:15;10.03;;;6.30;;
13564;SDS011;6854;48.096;11.278;2023-04-29T19:24:43;9.03;;;6.70;;
13564;SDS011;6854;48.096;11.278;2023-04-29T19:27:09;13.00;;;6.63;;
13564;SDS011;6854;48.096;11.278;2023-04-29T19:29:36;9.00;;;5.40;;
13564;SDS011;6854;48.096;11.278;2023-04-29T19:32:02;10.07;;;7.10;;
13564;SDS011;6854;48.096;11.278;2023-04-29T19:34:28;7.13;;;5.60;;
13564;SDS011;6854;48.096;11.278;2023-04-29T19:36:55;10.60;;;7.37;;
13564;SDS011;6854;48.096;11.278;2023-04-29T19:39:21;9.10;;;6.80;;
13564;SDS011;6854;48.096;11.278;2023-04-29T19:41:47;6.70;;;5.33;;
13564;SDS011;6854;48.096;11.278;2023-04-29T19:44:13;7.00;;;5.83;;
13564;SDS011;6854;48.096;11.278;2023-04-29T19:46:39;7.50;;;5.77;;
13564;SDS011;6854;48.096;11.278;2023-04-29T19:51:57;8.40;;;6.30;;
13564;SDS011;6854;48.096;11.278;2023-04-29T19:54:23;8.77;;;6.33;;
13564;SDS011;6854;48.096;11.278;2023-04-29T19:56:49;8.47;;;6.27;;
13564;SDS011;6854;48.096;11.278;2023-04-29T19:59:15;8.30;;;6.27;;
13564;SDS011;6854;48.096;11.278;2023-04-29T20:01:41;9.70;;;6.40;;
13564;SDS011;6854;48.096;11.278;2023-04-29T20:04:09;14.03;;;6.37;;
13564;SDS011;6854;48.096;11.278;2023-04-29T20:06:35;8.97;;;6.63;;
13564;SDS011;6854;48.096;11.278;2023-04-29T20:09:01;10.03;;;6.87;;
13564;SDS011;6854;48.096;11.278;2023-04-29T20:11:27;9.90;;;6.60;;
13564;SDS011;6854;48.096;11.278;2023-04-29T20:13:55;12.50;;;6.97;;
13564;SDS011;6854;48.096;11.278;2023-04-29T20:16:21;11.70;;;7.00;;
13564;SDS011;6854;48.096;11.278;2023-04-29T20:18:48;12.87;;;6.40;;
13564;SDS011;6854;48.096;11.278;2023-04-29T20:21:14;10.07;;;6.73;;
13564;SDS011;6854;48.096;11.278;2023-04-29T20:23:39;10.40;;;6.67;;
13564;SDS011;6854;48.096;11.278;2023-04-29T20:26:06;10.40;;;7.33;;
13564;SDS011;6854;48.096;11.278;2023-04-29T20:28:32;9.20;;;6.37;;
13564;SDS011;6854;48.096;11.278;2023-04-29T20:30:58;9.33;;;6.77;;
13564;SDS011;6854;48.096;11.278;2023-04-29T20:33:24;9.33;;;6.70;;
13564;SDS011;6854;48.096;11.278;2023-04-29T20:35:50;11.70;;;6.43;;
13564;SDS011;6854;48.096;11.278;2023-04-29T20:38:17;8.90;;;6.10;;
13564;SDS011;6854;48.096;11.278;2023-04-29T20:40:43;12.50;;;6.90;;
13564;SDS011;6854;48.096;11.278;2023-04-29T20:43:09;11.20;;;6.80;;
13564;SDS011;6854;48.096;11.278;2023-04-29T20:45:35;14.90;;;8.60;;
13564;SDS011;6854;48.096;11.278;2023-04-29T20:48:02;11.30;;;7.97;;
13564;SDS011;6854;48.096;11.278;2023-04-29T20:50:30;10.60;;;7.40;;
13564;SDS011;6854;48.096;11.278;2023-04-29T20:52:56;12.57;;;7.10;;
13564;SDS011;6854;48.096;11.278;2023-04-29T20:55:22;12.00;;;7.97;;
13564;SDS011;6854;48.096;11.278;2023-04-29T20:57:48;10.73;;;7.37;;
13564;SDS011;6854;48.096;11.278;2023-04-29T21:00:14;10.00;;;7.37;;
13564;SDS011;6854;48.096;11.278;2023-04-29T21:02:40;10.37;;;6.80;;
13564;SDS011;6854;48.096;11.278;2023-04-29T21:05:06;10.57;;;7.40;;
13564;SDS011;6854;48.096;11.278;2023-04-29T21:07:34;10.73;;;7.03;;
13564;SDS011;6854;48.096;11.278;2023-04-29T21:10:01;11.37;;;7.30;;
13564;SDS011;6854;48.096;11.278;2023-04-29T21:12:26;11.20;;;7.13;;
13564;SDS011;6854;48.096;11.278;2023-04-29T21:14:52;12.37;;;7.40;;
13564;SDS011;6854;48.096;11.278;2023-04-29T21:17:18;9.23;;;6.57;;
13564;SDS011;6854;48.096;11.278;2023-04-29T21:19:45;11.60;;;7.53;;
13564;SDS011;6854;48.096;11.278;2023-04-29T21:22:10;10.57;;;6.77;;
13564;SDS011;6854;48.096;11.278;2023-04-29T21:24:36;8.60;;;6.30;;
13564;SDS011;6854;48.096;11.278;2023-04-29T21:27:03;10.33;;;6.63;;
13564;SDS011;6854;48.096;11.278;2023-04-29T21:29:39;12.60;;;7.03;;
13564;SDS011;6854;48.096;11.278;2023-04-29T21:32:11;10.47;;;6.70;;
13564;SDS011;6854;48.096;11.278;2023-04-29T21:34:42;9.17;;;6.80;;
13564;SDS011;6854;48.096;11.278;2023-04-29T21:37:08;10.33;;;7.03;;
13564;SDS011;6854;48.096;11.278;2023-04-29T21:39:34;10.60;;;6.57;;
13564;SDS011;6854;48.096;11.278;2023-04-29T21:42:00;9.33;;;6.50;;
13564;SDS011;6854;48.096;11.278;2023-04-29T21:44:30;13.60;;;7.20;;
13564;SDS011;6854;48.096;11.278;2023-04-29T21:46:56;10.60;;;6.90;;
13564;SDS011;6854;48.096;11.278;2023-04-29T21:49:24;8.70;;;6.77;;
13564;SDS011;6854;48.096;11.278;2023-04-29T21:51:50;10.30;;;6.80;;
13564;SDS011;6854;48.096;11.278;2023-04-29T21:54:16;11.50;;;6.70;;
13564;SDS011;6854;48.096;11.278;2023-04-29T21:56:42;11.23;;;7.10;;
13564;SDS011;6854;48.096;11.278;2023-04-29T21:59:08;9.53;;;6.30;;
13564;SDS011;6854;48.096;11.278;2023-04-29T22:01:34;8.20;;;6.00;;
13564;SDS011;6854;48.096;11.278;2023-04-29T22:04:09;10.33;;;6.10;;
13564;SDS011;6854;48.096;11.278;2023-04-29T22:06:35;11.03;;;6.13;;
13564;SDS011;6854;48.096;11.278;2023-04-29T22:09:14;12.43;;;6.70;;
13564;SDS011;6854;48.096;11.278;2023-04-29T22:11:40;8.30;;;5.90;;
13564;SDS011;6854;48.096;11.278;2023-04-29T22:14:07;9.97;;;7.07;;
13564;SDS011;6854;48.096;11.278;2023-04-29T22:16:33;9.30;;;6.63;;
13564;SDS011;6854;48.096;11.278;2023-04-29T22:18:59;9.60;;;7.10;;
13564;SDS011;6854;48.096;11.278;2023-04-29T22:21:26;10.40;;;6.20;;
13564;SDS011;6854;48.096;11.278;2023-04-29T22:23:52;10.27;;;6.70;;
13564;SDS011;6854;48.096;11.278;2023-04-29T22:26:18;7.37;;;5.23;;
13564;SDS011;6854;48.096;11.278;2023-04-29T22:28:45;9.10;;;6.40;;
13564;SDS011;6854;48.096;11.278;2023-04-29T22:31:11;9.03;;;5.67;;
13564;SDS011;6854;48.096;11.278;2023-04-29T22:33:40;7.27;;;5.23;;
13564;SDS011;6854;48.096;11.278;2023-04-29T22:36:06;10.93;;;6.40;;
13564;SDS011;6854;48.096;11.278;2023-04-29T22:38:32;8.47;;;5.57;;
13564;SDS011;6854;48.096;11.278;2023-04-29T22:40:58;8.10;;;5.40;;
13564;SDS011;6854;48.096;11.278;2023-04-29T22:43:25;8.03;;;5.37;;
13564;SDS011;6854;48.096;11.278;2023-04-29T22:45:52;10.47;;;5.60;;
13564;SDS011;6854;48.096;11.278;2023-04-29T22:48:19;6.80;;;5.50;;
13564;SDS011;6854;48.096;11.278;2023-04-29T22:50:51;8.57;;;6.10;;
13564;SDS011;6854;48.096;11.278;2023-04-29T22:53:18;9.60;;;5.27;;
13564;SDS011;6854;48.096;11.278;2023-04-29T22:55:51;9.20;;;5.63;;
13564;SDS011;6854;48.096;11.278;2023-04-29T22:58:17;9.43;;;6.53;;
13564;SDS011;6854;48.096;11.278;2023-04-29T23:00:44;11.63;;;6.60;;
13564;SDS011;6854;48.096;11.278;2023-04-29T23:03:10;12.17;;;6.00;;
13564;SDS011;6854;48.096;11.278;2023-04-29T23:05:36;9.00;;;5.97;;
13564;SDS011;6854;48.096;11.278;2023-04-29T23:08:02;9.20;;;5.97;;
13564;SDS011;6854;48.096;11.278;2023-04-29T23:10:31;11.37;;;6.60;;
13564;SDS011;6854;48.096;11.278;2023-04-29T23:12:57;9.87;;;6.27;;
13564;SDS011;6854;48.096;11.278;2023-04-29T23:15:24;14.13;;;9.07;;
13564;SDS011;6854;48.096;11.278;2023-04-29T23:17:52;17.40;;;7.13;;
13564;SDS011;6854;48.096;11.278;2023-04-29T23:20:18;9.70;;;6.30;;
13564;SDS011;6854;48.096;11.278;2023-04-29T23:22:46;9.37;;;7.10;;
13564;SDS011;6854;48.096;11.278;2023-04-29T23:25:18;12.23;;;6.93;;
13564;SDS011;6854;48.096;11.278;2023-04-29T23:27:44;10.20;;;6.90;;
13564;SDS011;6854;48.096;11.278;2023-04-29T23:30:12;10.03;;;6.73;;
13564;SDS011;6854;48.096;11.278;2023-04-29T23:32:38;12.37;;;6.70;;
13564;SDS011;6854;48.096;11.278;2023-04-29T23:35:04;9.03;;;6.30;;
13564;SDS011;6854;48.096;11.278;2023-04-29T23:37:31;12.37;;;7.20;;
13564;SDS011;6854;48.096;11.278;2023-04-29T23:39:57;11.50;;;7.13;;
13564;SDS011;6854;48.096;11.278;2023-04-29T23:42:23;11.67;;;7.13;;
13564;SDS011;6854;48.096;11.278;2023-04-29T23:44:51;9.10;;;6.70;;
13564;SDS011;6854;48.096;11.278;2023-04-29T23:47:17;11.87;;;6.90;;
13564;SDS011;6854;48.096;11.278;2023-04-29T23:49:43;11.10;;;6.97;;
13564;SDS011;6854;48.096;11.278;2023-04-29T23:52:09;9.57;;;6.80;;
13564;SDS011;6854;48.096;11.278;2023-04-29T23:54:36;11.90;;;7.43;;
13564;SDS011;6854;48.096;11.278;2023-04-29T23:57:02;11.77;;;7.53;;
13564;SDS011;6854;48.096;11.278;2023-04-29T23:59:28;9.63;;;7.20;;
